Latest Weather Observations for Port Augusta

IDS60801

Issued at 9:35 pm CDT Saturday 25 October 2014 (issued every 30 minutes, with the page automatically refreshed every 10 minutes)

About weather observations | Map of weather stations | Latest weather observations for SA | Other Formats
Station Details ID: 018201 Name: PORT AUGUSTA AERO Lat: -32.51 Lon: 137.72 Height: 13.97 m
Data from the previous 72 hours. | See also: Recent months at Port Augusta
Date/Time
CDT
Temp
°C
App
Temp
°C
Dew
Point
Rel
Hum
%
Delta-T
°C
Wind Press
QNH
hPa
Press
MSL
hPa
Rain
since 9 am
mm
Dir
 
Spd
km/h
Gust
km/h
Spd
kts
Gust
kts
25/09:30pm 23.2 19.2 8.9 40 7.7 SE 20 28 11 15 1015.1 - 0.0
25/09:00pm 23.8 19.1 9.4 40 7.8 SE 24 33 13 18 1015.1 1015.1 0.0
25/08:30pm 23.3 19.5 9.7 42 7.4 SE 20 28 11 15 1014.8 - 0.0
25/08:00pm 23.4 20.0 11.1 46 6.9 SE 20 28 11 15 1014.6 - 0.0
25/07:30pm 23.1 19.8 12.7 52 6.0 SE 22 30 12 16 1014.1 - 0.0
25/07:00pm 24.3 20.8 14.4 54 5.9 SE 26 35 14 19 1013.8 - 0.0
25/06:30pm 26.2 20.6 11.5 40 8.4 SE 32 43 17 23 1013.4 - 0.0
25/06:00pm 27.8 22.3 10.5 34 9.8 SE 30 41 16 22 1013.6 1013.6 0.0
25/05:30pm 28.5 22.1 9.2 30 10.7 SE 33 43 18 23 1013.5 - 0.0
25/05:00pm 29.5 22.9 8.5 27 11.6 SSE 33 39 18 21 1013.4 - 0.0
25/04:30pm 29.1 23.4 9.8 30 10.8 SE 30 39 16 21 1013.5 - 0.0
25/04:00pm 28.5 22.3 10.2 32 10.3 SSE 33 41 18 22 1013.5 - 0.0
25/03:30pm 28.1 21.8 7.4 27 11.1 SE 30 39 16 21 1013.8 - 0.0
25/03:00pm 27.3 21.3 8.7 31 10.1 SE 30 39 16 21 1014.1 1014.1 0.0
25/02:30pm 26.4 22.2 12.5 42 8.1 SE 26 32 14 17 1014.6 - 0.0
25/02:00pm 27.2 22.9 12.0 38 8.8 ESE 26 33 14 18 1015.1 - 0.0
25/01:30pm 27.2 22.6 12.4 40 8.6 ESE 28 35 15 19 1015.4 - 0.0
25/01:00pm 26.8 22.5 12.1 40 8.5 ESE 26 35 14 19 1015.8 - 0.0
25/12:30pm 25.6 21.8 12.4 43 7.6 SE 24 32 13 17 1016.0 - 0.0
25/12:00pm 25.2 22.0 14.3 50 6.5 SE 24 33 13 18 1016.4 1016.4 0.0
25/11:30am 23.3 19.9 14.8 59 5.0 SE 26 32 14 17 1016.8 - 0.0
25/11:00am 22.8 20.0 15.4 63 4.4 SE 24 30 13 16 1017.0 - 0.0
25/10:30am 21.2 18.3 15.1 68 3.6 ESE 24 30 13 16 1017.3 - 0.0
25/10:00am 21.0 18.1 15.1 69 3.5 ESE 24 32 13 17 1017.6 - 0.0
25/09:30am 20.7 17.9 15.3 71 3.2 SE 24 32 13 17 1017.6 - 0.0
25/09:00am 19.8 16.7 14.6 72 3.0 SE 24 35 13 19 1017.4 1017.4 0.0
25/08:30am 19.3 15.5 14.8 75 2.6 SSE 28 35 15 19 1017.5 - 0.0
25/08:05am 18.6 15.6 14.7 78 2.3 SSE 24 33 13 18 1017.7 - 0.0
25/08:00am 18.6 16.0 14.9 79 2.2 SSE 22 30 12 16 1017.5 - 0.0
25/07:30am 17.8 14.4 14.7 82 1.8 S 26 35 14 19 1017.5 - 0.0
25/07:12am 17.6 15.0 14.9 84 1.6 SSE 22 28 12 15 1017.0 - 0.0
25/07:00am 17.5 15.3 14.8 84 1.6 SSE 20 26 11 14 1016.8 - 0.0
25/06:30am 16.6 15.4 14.1 85 1.4 SSE 13 17 7 9 1016.5 - 0.0
25/06:00am 17.2 16.1 14.3 83 1.7 S 13 15 7 8 1015.8 1015.8 0.0
25/05:30am 17.4 16.6 13.9 80 2.0 S 11 15 6 8 1015.5 - 0.0
25/05:00am 17.7 16.4 13.8 78 2.2 S 13 15 7 8 1015.3 - 0.0
25/04:30am 18.8 17.7 13.2 70 3.2 S 11 17 6 9 1014.9 - 0.0
25/04:00am 19.1 16.9 13.3 69 3.3 SSE 17 24 9 13 1014.7 - 0.0
25/03:30am 19.1 16.4 13.5 70 3.2 SSE 20 28 11 15 1014.2 - 0.0
25/03:00am 19.5 18.0 13.2 67 3.6 SE 13 17 7 9 1014.4 1014.4 0.0
25/02:30am 19.1 16.5 13.3 69 3.3 SSW 19 24 10 13 1014.4 - 0.0
25/02:00am 20.0 15.9 13.7 67 3.6 SSW 28 35 15 19 1014.4 - 0.0
25/01:30am 20.5 18.2 13.0 62 4.3 S 17 22 9 12 1014.6 - 0.0
25/01:00am 20.6 18.4 14.3 67 3.7 ESE 19 24 10 13 1014.1 - 0.0
25/12:30am 21.5 19.2 12.9 58 4.9 ESE 17 22 9 12 1013.9 - 0.0
25/12:00am 22.2 20.3 11.9 52 5.8 SE 13 17 7 9 1014.2 1014.2 0.0
 
Date/Time
CDT
Temp
°C
App
Temp
°C
Dew
Point
Rel
Hum
%
Delta-T
°C
Wind Press
QNH
hPa
Press
MSL
hPa
Rain
since 9 am
mm
Dir
 
Spd
km/h
Gust
km/h
Spd
kts
Gust
kts
24/11:30pm 22.3 20.2 11.1 49 6.2 SSE 13 19 7 10 1014.2 - 0.0
24/11:00pm 22.5 20.4 11.3 49 6.2 SSE 13 19 7 10 1014.1 - 0.0
24/10:30pm 22.5 19.8 11.6 50 6.1 SSE 17 26 9 14 1014.5 - 0.0
24/10:00pm 21.8 19.5 14.7 64 4.2 SE 20 35 11 19 1013.9 - 0.0
24/09:30pm 22.4 19.3 14.5 61 4.6 SE 24 39 13 21 1013.9 - 0.0
24/09:00pm 22.8 19.0 14.6 60 4.8 SE 28 37 15 20 1013.4 1013.4 0.0
24/08:30pm 24.8 18.6 11.4 43 7.6 SE 35 48 19 26 1011.7 - 0.0
24/08:23pm 25.3 20.0 11.1 41 8.0 SE 30 48 16 26 1011.6 - 0.0
24/08:17pm 26.9 22.3 11.0 37 9.0 SE 26 43 14 23 1011.4 - 0.0
24/08:00pm 32.0 28.7 4.7 18 14.3 S 11 17 6 9 1011.0 - 0.0
24/07:30pm 35.8 30.9 2.0 12 17.3 WNW 17 22 9 12 1010.4 - 0.0
24/07:00pm 37.6 30.8 0.8 10 18.7 W 26 37 14 20 1010.0 - 0.0
24/06:30pm 38.7 32.4 1.6 10 19.2 WNW 24 32 13 17 1009.8 - 0.0
24/06:00pm 39.1 32.5 1.9 10 19.4 WNW 26 41 14 22 1009.6 1009.6 0.0
24/05:30pm 39.0 34.1 1.9 10 19.3 WNW 17 26 9 14 1009.6 - 0.0
24/05:00pm 39.6 34.2 2.3 10 19.6 WNW 20 26 11 14 1009.7 - 0.0
24/04:30pm 39.6 32.7 2.3 10 19.6 NW 28 37 15 20 1009.9 - 0.0
24/04:00pm 39.2 33.3 2.0 10 19.4 W 22 37 12 20 1010.0 - 0.0
24/03:30pm 39.9 34.5 2.5 10 19.8 SW 20 33 11 18 1010.2 - 0.0
24/03:00pm 39.1 34.4 3.3 11 19.1 NNW 17 26 9 14 1010.8 1010.8 0.0
24/02:30pm 38.6 34.2 2.9 11 18.9 NW 15 39 8 21 1011.4 - 0.0
24/02:00pm 37.1 32.0 3.0 12 17.9 NNW 19 32 10 17 1012.0 - 0.0
24/01:30pm 38.0 32.2 2.4 11 18.6 NNW 22 35 12 19 1012.4 - 0.0
24/01:00pm 37.5 32.8 3.3 12 18.1 N 17 28 9 15 1012.7 - 0.0
24/12:30pm 35.9 30.8 0.9 11 17.6 NNW 17 24 9 13 1013.0 - 0.0
24/12:00pm 35.1 30.7 4.6 15 16.2 N 17 30 9 16 1013.5 1013.5 0.0
24/11:30am 33.5 29.3 5.9 18 14.9 N 17 26 9 14 1013.8 - 0.0
24/11:00am 32.1 28.3 7.7 22 13.4 NNW 17 26 9 14 1014.2 - 0.0
24/10:30am 29.3 26.9 9.9 30 10.9 NNW 13 17 7 9 1014.2 - 0.0
24/10:00am 28.1 26.4 11.2 35 9.7 NNW 11 15 6 8 1014.4 - 0.0
24/09:30am 25.1 24.3 13.0 47 7.0 WNW 9 13 5 7 1014.4 - 0.0
24/09:00am 22.5 21.9 13.6 57 5.2 WNW 9 13 5 7 1014.4 1014.4 0.0
24/08:30am 20.6 20.7 14.0 66 3.8 WSW 6 9 3 5 1014.3 - 0.0
24/08:00am 18.7 19.0 14.6 77 2.4 W 6 7 3 4 1014.5 - 0.0
24/07:30am 16.8 17.0 14.1 84 1.5 SW 6 6 3 3 1014.5 - 0.0
24/07:00am 15.8 15.7 13.8 88 1.1 NW 7 9 4 5 1014.4 - 0.0
24/06:30am 16.5 16.2 14.5 88 1.1 E 9 11 5 6 1013.8 - 0.0
24/06:00am 16.1 15.8 13.4 84 1.5 N 7 13 4 7 1014.4 1014.4 0.0
24/05:30am 16.6 17.5 12.9 79 2.1 CALM 0 0 0 0 1013.6 - 0.0
24/05:00am 16.7 16.2 12.8 78 2.2 SSW 7 9 4 5 1013.6 - 0.0
24/04:30am 17.9 19.5 15.0 83 1.7 CALM 0 0 0 0 1013.2 - 0.0
24/04:00am 18.3 18.4 13.8 75 2.6 W 6 9 3 5 1012.9 - 0.0
24/03:30am 18.6 18.2 15.1 80 2.0 SSE 11 15 6 8 1012.9 - 0.0
24/03:00am 18.7 18.6 16.1 85 1.5 SE 11 15 6 8 1012.7 1012.7 0.0
24/02:30am 18.6 18.7 15.5 82 1.8 E 9 11 5 6 1013.0 - 0.0
24/02:00am 17.2 15.5 12.5 74 2.6 S 13 17 7 9 1013.3 - 0.0
24/01:30am 18.3 18.1 15.6 84 1.6 SE 11 15 6 8 1013.8 - 0.0
24/01:00am 18.4 17.8 15.6 84 1.6 ESE 13 17 7 9 1014.4 - 0.0
24/12:30am 18.2 17.0 15.1 82 1.8 SE 15 20 8 11 1015.1 - 0.0
24/12:00am 18.5 17.0 15.2 81 1.9 SE 17 24 9 13 1015.7 1015.7 0.0
 
Date/Time
CDT
Temp
°C
App
Temp
°C
Dew
Point
Rel
Hum
%
Delta-T
°C
Wind Press
QNH
hPa
Press
MSL
hPa
Rain
since 9 am
mm
Dir
 
Spd
km/h
Gust
km/h
Spd
kts
Gust
kts
23/11:30pm 18.3 16.9 14.6 79 2.1 SSE 15 19 8 10 1015.8 - 0.0
23/11:00pm 18.5 16.8 13.6 73 2.8 SSE 15 20 8 11 1015.8 - 0.0
23/10:30pm 18.6 17.9 14.3 76 2.5 S 11 17 6 9 1016.0 - 0.0
23/10:00pm 19.1 15.6 14.6 75 2.6 SE 26 41 14 22 1015.4 - 0.0
23/09:30pm 19.7 16.9 14.3 71 3.1 ESE 22 32 12 17 1015.3 - 0.0
23/09:00pm 21.1 19.7 13.3 61 4.5 SE 13 17 7 9 1015.1 1015.1 0.0
23/08:30pm 22.4 20.4 12.6 54 5.6 SSE 15 28 8 15 1014.6 - 0.0
23/08:00pm 23.4 20.0 12.4 50 6.3 SE 22 30 12 16 1013.9 - 0.0
23/07:30pm 24.1 20.7 12.4 48 6.7 SE 22 32 12 17 1013.4 - 0.0
23/07:00pm 24.8 20.9 12.1 45 7.3 SE 24 32 13 17 1013.2 - 0.0
23/06:30pm 24.9 19.4 11.8 44 7.4 SSE 32 39 17 21 1013.0 - 0.0
23/06:00pm 24.8 19.6 11.7 44 7.4 SE 30 39 16 21 1012.7 1012.7 0.0
23/05:30pm 24.8 19.0 11.4 43 7.6 SE 33 43 18 23 1012.7 - 0.0
23/05:00pm 25.5 19.9 12.0 43 7.7 SE 33 41 18 22 1012.7 - 0.0
23/04:30pm 26.0 21.5 13.8 47 7.2 SE 30 37 16 20 1012.8 - 0.0
23/04:00pm 26.8 22.0 12.8 42 8.2 SE 30 39 16 21 1013.0 - 0.0
23/03:30pm 26.9 23.1 12.5 40 8.4 SE 24 32 13 17 1013.4 - 0.0
23/03:00pm 26.4 23.2 14.2 47 7.3 ESE 24 32 13 17 1013.8 1013.8 0.0
23/02:30pm 26.0 23.0 13.8 47 7.2 SE 22 30 12 16 1014.0 - 0.0
23/02:00pm 25.1 21.2 13.3 48 6.9 SE 26 33 14 18 1014.3 - 0.0
23/01:30pm 25.3 21.4 13.2 47 7.1 SE 26 32 14 17 1014.7 - 0.0
23/01:00pm 24.5 20.9 13.1 49 6.6 SE 24 32 13 17 1015.1 - 0.0
23/12:30pm 24.3 21.0 12.9 49 6.6 SE 22 30 12 16 1015.3 - 0.0
23/12:00pm 23.3 20.1 13.2 53 5.8 SE 22 32 12 17 1015.9 1015.9 0.0
23/11:30am 22.2 18.7 13.5 57 5.0 SE 24 32 13 17 1016.2 - 0.0
23/11:00am 20.5 16.9 13.2 63 4.2 SE 24 32 13 17 1016.5 - 0.0
23/10:30am 19.6 16.0 13.1 66 3.7 SE 24 33 13 18 1016.9 - 0.0
23/10:00am 19.6 15.6 13.1 66 3.7 SE 26 33 14 18 1017.1 - 0.0
23/09:30am 19.0 15.1 13.2 69 3.3 SE 26 32 14 17 1017.5 - 0.0
23/09:01am 17.7 13.3 13.0 74 2.6 SSE 28 35 15 19 1017.7 - 0.0
23/09:00am 17.6 12.8 12.9 74 2.6 SSE 30 35 16 19 1017.7 1017.7 0.0
23/08:42am 18.3 13.7 13.4 73 2.8 SSE 30 35 16 19 1017.6 - 0.0
23/08:40am 17.7 13.0 13.2 75 2.5 SSE 30 35 16 19 1017.6 - 0.0
23/08:30am 17.3 13.2 12.8 75 2.5 SSE 26 37 14 20 1017.7 - 0.0
23/08:24am 17.7 13.8 13.4 76 2.4 SSE 26 33 14 18 1017.7 - 0.0
23/08:19am 17.4 12.7 13.1 76 2.4 SSE 30 37 16 20 1017.7 - 0.0
23/08:00am 17.7 14.6 13.4 76 2.4 SSE 22 32 12 17 1017.7 - 0.0
23/07:30am 17.2 13.3 13.3 78 2.2 S 26 33 14 18 1017.5 - 0.0
23/07:00am 16.6 13.0 13.1 80 2.0 S 24 32 13 17 1017.4 - 0.0
23/06:30am 16.5 12.6 13.2 81 1.8 S 26 32 14 17 1017.3 - 0.0
23/06:00am 16.7 12.8 13.2 80 2.0 S 26 37 14 20 1017.3 1017.3 0.0
23/05:30am 16.8 13.0 13.5 81 1.9 SSE 26 32 14 17 1017.0 - 0.0
23/05:00am 16.8 12.6 13.5 81 1.9 S 28 35 15 19 1017.3 - 0.0
23/04:30am 16.9 13.1 13.6 81 1.9 SSE 26 32 14 17 1017.2 - 0.0
23/04:00am 17.0 13.2 13.5 80 2.0 S 26 35 14 19 1016.9 - 0.0
23/03:30am 17.1 13.7 13.8 81 1.9 SSE 24 33 13 18 1016.7 - 0.0
23/03:00am 17.0 12.9 13.7 81 1.9 SSE 28 37 15 20 1017.2 1017.2 0.0
23/02:30am 17.0 13.6 13.7 81 1.9 SSE 24 30 13 16 1017.6 - 0.0
23/02:00am 16.9 12.8 13.8 82 1.8 SSE 28 37 15 20 1017.9 - 0.0
23/01:45am 16.7 12.2 13.8 83 1.6 S 30 35 16 19 1017.9 - 0.0
23/01:30am 16.7 13.7 13.6 82 1.7 SSE 22 28 12 15 1018.1 - 0.0
23/01:00am 17.6 13.7 14.3 81 1.9 S 28 37 15 20 1018.4 - 0.0
23/12:39am 18.1 15.7 14.4 79 2.1 S 20 32 11 17 1018.4 - 0.0
23/12:30am 18.0 15.6 14.3 79 2.1 S 20 26 11 14 1018.6 - 0.0
23/12:00am 18.4 13.8 14.7 79 2.1 SSE 32 43 17 23 1018.5 1018.5 0.0
 
Date/Time
CDT
Temp
°C
App
Temp
°C
Dew
Point
Rel
Hum
%
Delta-T
°C
Wind Press
QNH
hPa
Press
MSL
hPa
Rain
since 9 am
mm
Dir
 
Spd
km/h
Gust
km/h
Spd
kts
Gust
kts
22/11:30pm 18.3 13.8 14.8 80 2.0 SSE 32 43 17 23 1018.7 - 0.0
22/11:00pm 18.1 13.5 14.6 80 2.0 S 32 43 17 23 1018.5 - 0.0
22/10:30pm 18.0 13.4 14.5 80 2.0 S 32 43 17 23 1018.7 - 0.0
22/10:22pm 17.9 13.6 14.4 80 2.0 SSE 30 37 16 20 1018.7 - 0.0
22/10:00pm 18.0 13.7 14.3 79 2.1 SSE 30 43 16 23 1018.6 - 0.0

Other Formats:

Comma delimited format used in spreadsheet applications
http://www.bom.gov.au/fwo/IDS60801/IDS60801.95666.axf

JavaScript Object Notation format (JSON) in row-major order
http://www.bom.gov.au/fwo/IDS60801/IDS60801.95666.json